createdAt,value
2022-11-04T00:00:09.851Z,17.40
2022-11-04T00:02:37.170Z,18.05
2022-11-04T00:05:04.778Z,17.92
2022-11-04T00:07:50.739Z,18.85
2022-11-04T00:10:37.946Z,18.23
2022-11-04T00:13:05.534Z,18.30
2022-11-04T00:15:55.794Z,18.83
2022-11-04T00:18:23.196Z,19.52
2022-11-04T00:21:09.266Z,20.73
2022-11-04T00:23:55.337Z,19.50
2022-11-04T00:26:41.328Z,19.58
2022-11-04T00:29:08.734Z,19.75
2022-11-04T00:31:54.477Z,18.73
2022-11-04T00:34:21.778Z,19.48
2022-11-04T00:36:49.010Z,19.70
2022-11-04T00:39:16.293Z,19.95
2022-11-04T00:41:43.589Z,19.48
2022-11-04T00:44:10.864Z,19.63
2022-11-04T00:46:38.037Z,20.38
2022-11-04T00:49:05.485Z,21.40
2022-11-04T00:51:32.720Z,20.15
2022-11-04T00:54:00.057Z,19.98
2022-11-04T00:56:27.814Z,19.90
2022-11-04T00:58:55.245Z,19.70
2022-11-04T01:01:22.713Z,19.52
2022-11-04T01:03:52.837Z,20.10
2022-11-04T01:06:21.891Z,20.40
2022-11-04T01:08:49.545Z,20.07
2022-11-04T01:11:17.066Z,20.73
2022-11-04T01:13:44.318Z,21.13
2022-11-04T01:16:13.255Z,20.42
2022-11-04T01:18:41.373Z,20.73
2022-11-04T01:21:13.269Z,21.38
2022-11-04T01:23:42.485Z,20.02
2022-11-04T01:26:13.890Z,20.67
2022-11-04T01:28:41.318Z,21.35
2022-11-04T01:31:14.397Z,21.23
2022-11-04T01:33:42.097Z,21.50
2022-11-04T01:36:10.773Z,21.67
2022-11-04T01:38:38.171Z,21.02
2022-11-04T01:41:06.826Z,22.20
2022-11-04T01:43:44.933Z,22.23
2022-11-04T01:46:46.596Z,20.70
2022-11-04T01:49:16.737Z,21.02
2022-11-04T01:51:46.208Z,22.20
2022-11-04T01:54:14.151Z,21.63
2022-11-04T01:56:44.295Z,21.83
2022-11-04T01:59:21.059Z,22.27
2022-11-04T02:01:48.587Z,22.58
2022-11-04T02:04:26.067Z,23.23
2022-11-04T02:07:08.123Z,21.67
2022-11-04T02:09:37.601Z,22.67
2022-11-04T02:12:23.724Z,21.95
2022-11-04T02:14:52.813Z,20.92
2022-11-04T02:17:19.952Z,20.63
2022-11-04T02:20:05.804Z,22.17
2022-11-04T02:23:10.991Z,22.30
2022-11-04T02:25:57.478Z,20.92
2022-11-04T02:28:34.235Z,22.58
2022-11-04T02:31:19.569Z,22.33
2022-11-04T02:34:00.976Z,22.67
2022-11-04T02:36:42.707Z,21.15
2022-11-04T02:39:28.490Z,22.88
2022-11-04T02:42:04.551Z,21.88
2022-11-04T02:44:38.171Z,23.70
2022-11-04T02:47:09.946Z,22.58
2022-11-04T02:49:58.558Z,22.67
2022-11-04T02:52:31.730Z,22.17
2022-11-04T02:55:27.874Z,22.67
2022-11-04T02:57:59.283Z,23.52
2022-11-04T03:00:28.601Z,23.58
2022-11-04T03:03:04.136Z,23.70
2022-11-04T03:05:38.932Z,21.40
2022-11-04T03:08:18.380Z,21.88
2022-11-04T03:10:52.573Z,22.25
2022-11-04T03:13:34.256Z,22.85
2022-11-04T03:16:09.226Z,23.15
2022-11-04T03:18:46.526Z,23.95
2022-11-04T03:21:16.758Z,23.45
2022-11-04T03:23:44.034Z,21.60
2022-11-04T03:26:21.799Z,23.15
2022-11-04T03:29:07.281Z,23.60
2022-11-04T03:32:10.049Z,23.00
2022-11-04T03:34:38.064Z,21.50
2022-11-04T03:37:05.638Z,23.33
2022-11-04T03:39:33.505Z,22.55
2022-11-04T03:42:20.055Z,23.33
2022-11-04T03:44:56.258Z,23.70
2022-11-04T03:47:26.520Z,26.02
2022-11-04T03:50:17.732Z,23.17
2022-11-04T03:52:45.003Z,21.13
2022-11-04T03:55:13.012Z,23.33
2022-11-04T03:57:46.333Z,23.08
2022-11-04T04:00:17.014Z,22.92
2022-11-04T04:03:08.902Z,22.45
2022-11-04T04:05:46.768Z,20.83
2022-11-04T04:08:33.903Z,22.30
2022-11-04T04:11:44.445Z,25.60
2022-11-04T04:14:41.495Z,23.83
2022-11-04T04:17:37.581Z,24.88
2022-11-04T04:20:27.076Z,27.95
2022-11-04T04:23:29.740Z,27.02
2022-11-04T04:26:20.151Z,25.92
2022-11-04T04:28:48.438Z,26.48
2022-11-04T04:31:39.963Z,25.17
2022-11-04T04:34:07.953Z,27.73
2022-11-04T04:36:45.564Z,27.45
2022-11-04T04:39:35.610Z,26.48
2022-11-04T04:42:22.491Z,28.83
2022-11-04T04:45:04.753Z,29.38
2022-11-04T04:47:45.030Z,25.33
2022-11-04T04:50:15.799Z,26.48
2022-11-04T04:52:52.974Z,27.80
2022-11-04T04:55:21.271Z,26.92
2022-11-04T04:57:48.617Z,28.35
2022-11-04T05:00:18.967Z,28.25
2022-11-04T05:02:46.389Z,29.33
2022-11-04T05:07:46.799Z,28.25
2022-11-04T05:10:16.112Z,29.05
2022-11-04T05:13:01.984Z,30.15
2022-11-04T05:15:31.233Z,27.85
2022-11-04T05:18:00.588Z,28.95
2022-11-04T05:20:30.362Z,30.08
2022-11-04T05:22:57.679Z,31.25
2022-11-04T05:25:25.001Z,30.25
2022-11-04T05:27:52.324Z,30.77
2022-11-04T05:30:19.651Z,32.28
2022-11-04T05:32:46.837Z,33.15
2022-11-04T05:35:14.218Z,32.25
2022-11-04T05:37:41.525Z,31.35
2022-11-04T05:40:09.359Z,34.88
2022-11-04T05:42:36.965Z,35.30
2022-11-04T05:45:05.169Z,32.58
2022-11-04T05:47:32.386Z,34.35
2022-11-04T05:49:59.724Z,34.60
2022-11-04T05:52:26.989Z,38.72
2022-11-04T05:54:54.232Z,40.13
2022-11-04T05:57:21.575Z,40.88
2022-11-04T05:59:48.965Z,40.53
2022-11-04T06:02:16.314Z,44.45
2022-11-04T06:04:43.638Z,46.92
2022-11-04T06:07:11.988Z,43.83
2022-11-04T06:09:39.351Z,42.28
2022-11-04T06:12:12.166Z,39.58
2022-11-04T06:14:39.509Z,40.22
2022-11-04T06:17:06.756Z,41.00
2022-11-04T06:19:34.076Z,37.10
2022-11-04T06:22:01.312Z,38.65
2022-11-04T06:24:28.579Z,43.53
2022-11-04T06:26:56.109Z,41.80
2022-11-04T06:29:23.509Z,39.42
2022-11-04T06:31:51.191Z,42.35
2022-11-04T06:34:18.698Z,42.25
2022-11-04T06:36:45.957Z,44.97
2022-11-04T06:39:13.167Z,47.63
2022-11-04T06:41:42.956Z,47.22
2022-11-04T06:44:10.640Z,50.35
2022-11-04T06:46:39.010Z,44.45
2022-11-04T06:49:09.752Z,45.25
2022-11-04T06:51:37.182Z,44.85
2022-11-04T06:54:04.730Z,43.22
2022-11-04T06:56:31.992Z,44.83
2022-11-04T06:58:59.283Z,44.22
2022-11-04T07:01:30.800Z,42.58
2022-11-04T07:04:00.266Z,44.40
2022-11-04T07:06:29.258Z,47.70
2022-11-04T07:08:58.989Z,48.23
2022-11-04T07:11:28.157Z,47.10
2022-11-04T07:13:55.499Z,49.13
2022-11-04T07:16:22.894Z,47.53
2022-11-04T07:18:51.861Z,47.83
2022-11-04T07:21:19.221Z,47.10
2022-11-04T07:23:46.527Z,45.05
2022-11-04T07:26:14.101Z,44.15
2022-11-04T07:28:41.360Z,44.15
2022-11-04T07:31:12.326Z,44.72
2022-11-04T07:33:39.797Z,43.03
2022-11-04T07:36:11.582Z,45.08
2022-11-04T07:38:38.925Z,41.90
2022-11-04T07:41:06.378Z,40.85
2022-11-04T07:43:33.967Z,40.88
2022-11-04T07:46:06.175Z,40.22
2022-11-04T07:48:33.670Z,39.25
2022-11-04T07:51:01.644Z,41.33
2022-11-04T07:53:33.087Z,39.35
2022-11-04T07:56:07.177Z,41.50
2022-11-04T07:58:35.007Z,42.60
2022-11-04T08:01:07.751Z,41.42
2022-11-04T08:03:36.854Z,44.35
2022-11-04T08:06:06.043Z,74.15
2022-11-04T08:08:34.347Z,51.15
2022-11-04T08:11:16.817Z,46.38
2022-11-04T08:13:45.589Z,43.33
2022-11-04T08:16:19.192Z,50.70
2022-11-04T08:18:48.570Z,44.25
2022-11-04T08:21:16.505Z,39.80
2022-11-04T08:23:44.516Z,40.25
2022-11-04T08:26:16.418Z,37.63
2022-11-04T08:28:43.678Z,34.38
2022-11-04T08:31:18.199Z,35.30
2022-11-04T08:33:45.670Z,38.03
2022-11-04T08:36:19.386Z,71.10
2022-11-04T08:38:46.853Z,89.80
2022-11-04T08:41:16.586Z,43.25
2022-11-04T08:43:43.911Z,45.08
2022-11-04T08:46:11.500Z,39.08
2022-11-04T08:48:39.772Z,36.13
2022-11-04T08:51:15.892Z,46.25
2022-11-04T08:53:43.673Z,42.45
2022-11-04T08:56:18.032Z,41.80
2022-11-04T08:58:45.637Z,47.15
2022-11-04T09:01:12.890Z,40.47
2022-11-04T09:03:41.450Z,40.92
2022-11-04T09:06:12.252Z,39.88
2022-11-04T09:08:39.817Z,34.13
2022-11-04T09:11:10.084Z,33.70
2022-11-04T09:13:39.865Z,32.55
2022-11-04T09:16:09.416Z,33.08
2022-11-04T09:18:36.866Z,32.08
2022-11-04T09:21:05.981Z,32.08
2022-11-04T09:23:33.618Z,31.85
2022-11-04T09:26:10.076Z,33.45
2022-11-04T09:28:37.378Z,27.75
2022-11-04T09:31:12.115Z,27.23
2022-11-04T09:33:39.909Z,28.38
2022-11-04T09:36:08.945Z,26.73
2022-11-04T09:38:40.484Z,27.60
2022-11-04T09:41:42.169Z,25.85
2022-11-04T09:44:29.127Z,26.05
2022-11-04T09:47:03.002Z,25.38
2022-11-04T09:49:35.857Z,25.10
2022-11-04T09:52:13.399Z,24.50
2022-11-04T09:54:53.127Z,24.65
2022-11-04T09:59:48.533Z,25.25
2022-11-04T10:02:28.101Z,24.25
2022-11-04T10:05:27.658Z,24.77
2022-11-04T10:08:12.877Z,23.58
2022-11-04T10:11:05.238Z,23.60
2022-11-04T10:14:10.707Z,22.92
2022-11-04T10:16:49.817Z,21.30
2022-11-04T10:19:27.491Z,21.48
2022-11-04T10:22:11.738Z,19.52
2022-11-04T10:24:43.498Z,19.08
2022-11-04T10:27:17.614Z,20.58
2022-11-04T10:29:52.806Z,20.90
2022-11-04T10:32:35.719Z,19.88
2022-11-04T10:35:34.780Z,19.70
2022-11-04T10:38:17.614Z,18.20
2022-11-04T10:40:48.691Z,18.95
2022-11-04T10:43:28.567Z,18.45
2022-11-04T10:46:08.147Z,17.52
2022-11-04T10:51:23.902Z,18.92
2022-11-04T10:53:56.658Z,19.50
2022-11-04T10:56:50.324Z,17.80
2022-11-04T10:59:31.742Z,18.17
2022-11-04T11:02:02.131Z,18.13
2022-11-04T11:04:32.401Z,18.83
2022-11-04T11:07:02.020Z,20.67
2022-11-04T11:09:32.730Z,19.85
2022-11-04T11:12:01.656Z,27.67
2022-11-04T11:14:28.808Z,34.50
2022-11-04T11:16:57.773Z,38.53
2022-11-04T11:19:26.012Z,36.92
2022-11-04T11:21:56.035Z,58.63
2022-11-04T11:24:25.056Z,28.52
2022-11-04T11:26:57.280Z,26.08
2022-11-04T11:29:42.311Z,26.63
2022-11-04T11:32:37.018Z,26.77
2022-11-04T11:35:10.756Z,29.33
2022-11-04T11:37:43.258Z,27.25
2022-11-04T11:40:32.097Z,19.80
2022-11-04T11:43:01.243Z,16.98
2022-11-04T11:45:30.125Z,18.45
2022-11-04T11:47:57.614Z,20.08
2022-11-04T11:50:31.309Z,18.17
2022-11-04T11:53:14.805Z,17.40
2022-11-04T11:55:48.550Z,20.02
2022-11-04T12:01:35.653Z,19.45
2022-11-04T12:10:51.995Z,16.85
2022-11-04T12:13:29.227Z,15.75
2022-11-04T12:16:27.524Z,16.42
2022-11-04T12:19:26.408Z,16.70
2022-11-04T12:22:13.961Z,18.80
2022-11-04T12:24:53.360Z,19.90
2022-11-04T12:27:38.326Z,22.38
2022-11-04T12:30:06.647Z,22.10
2022-11-04T12:32:58.453Z,22.98
2022-11-04T12:35:53.616Z,22.15
2022-11-04T12:39:02.422Z,22.02
2022-11-04T12:42:06.458Z,21.53
2022-11-04T12:44:34.790Z,22.30
2022-11-04T12:47:20.826Z,22.23
2022-11-04T12:50:09.195Z,21.45
2022-11-04T12:53:12.296Z,20.63
2022-11-04T12:55:54.890Z,20.70
2022-11-04T12:58:44.881Z,22.50
2022-11-04T13:01:55.748Z,26.98
2022-11-04T13:04:39.142Z,28.77
2022-11-04T13:07:41.403Z,23.13
2022-11-04T13:10:21.385Z,19.05
2022-11-04T13:12:51.901Z,19.83
2022-11-04T13:15:28.910Z,18.20
2022-11-04T13:18:01.531Z,18.85
2022-11-04T13:20:40.526Z,18.55
2022-11-04T13:23:18.832Z,17.20
2022-11-04T13:25:48.233Z,17.33
2022-11-04T13:28:19.616Z,17.17
2022-11-04T13:31:25.825Z,18.92
2022-11-04T13:34:05.915Z,18.75
2022-11-04T13:36:40.436Z,18.83
2022-11-04T13:39:18.430Z,20.55
2022-11-04T13:41:58.086Z,20.75
2022-11-04T13:47:04.170Z,22.35
2022-11-04T13:49:37.110Z,20.88
2022-11-04T13:52:08.970Z,23.02
2022-11-04T13:54:43.104Z,21.35
2022-11-04T13:57:17.993Z,22.15
2022-11-04T14:00:09.481Z,21.80
2022-11-04T14:02:44.029Z,22.23
2022-11-04T14:05:29.873Z,23.27
2022-11-04T14:08:03.053Z,22.50
2022-11-04T14:10:59.248Z,23.95
2022-11-04T14:13:26.391Z,26.10
2022-11-04T14:16:11.433Z,25.55
2022-11-04T14:18:47.060Z,24.23
2022-11-04T14:21:15.955Z,26.55
2022-11-04T14:23:47.453Z,27.27
2022-11-04T14:26:20.908Z,27.92
2022-11-04T14:29:00.606Z,33.05
2022-11-04T14:34:34.551Z,42.00
2022-11-04T14:37:07.901Z,31.30
2022-11-04T14:39:44.396Z,25.38
2022-11-04T14:42:14.439Z,24.05
2022-11-04T14:44:41.658Z,25.27
2022-11-04T14:47:27.641Z,23.30
2022-11-04T14:50:08.825Z,24.30
2022-11-04T14:52:46.339Z,24.90
2022-11-04T14:55:22.005Z,25.60
2022-11-04T14:57:54.736Z,25.63
2022-11-04T15:00:31.735Z,26.05
2022-11-04T15:03:10.172Z,26.80
2022-11-04T15:05:39.997Z,24.83
2022-11-04T15:08:44.074Z,26.67
2022-11-04T15:11:17.262Z,30.63
2022-11-04T15:13:51.047Z,30.58
2022-11-04T15:16:26.888Z,29.17
2022-11-04T15:18:57.212Z,29.83
2022-11-04T15:21:25.477Z,35.63
2022-11-04T15:23:55.718Z,33.90
2022-11-04T15:26:30.125Z,33.92
2022-11-04T15:29:00.474Z,29.10
2022-11-04T15:31:32.497Z,27.92
2022-11-04T15:34:02.866Z,29.02
2022-11-04T15:36:35.053Z,27.83
2022-11-04T15:39:07.788Z,28.30
2022-11-04T15:41:57.828Z,28.73
2022-11-04T15:44:31.255Z,30.23
2022-11-04T15:47:04.671Z,32.53
2022-11-04T15:49:35.379Z,43.17
2022-11-04T15:52:08.690Z,38.22
2022-11-04T15:54:48.490Z,35.35
2022-11-04T15:57:40.282Z,35.65
2022-11-04T16:00:28.524Z,32.50
2022-11-04T16:02:58.765Z,33.33
2022-11-04T16:05:27.969Z,34.15
2022-11-04T16:08:07.561Z,31.98
2022-11-04T16:10:36.817Z,32.25
2022-11-04T16:13:16.396Z,33.05
2022-11-04T16:15:46.497Z,33.03
2022-11-04T16:18:24.469Z,35.85
2022-11-04T16:20:54.284Z,37.83
2022-11-04T16:23:24.936Z,39.45
2022-11-04T16:26:01.803Z,37.47
2022-11-04T16:28:31.593Z,35.38
2022-11-04T16:33:27.091Z,48.33
2022-11-04T16:35:54.446Z,39.65
2022-11-04T16:38:21.707Z,34.03
2022-11-04T16:40:50.090Z,33.88
2022-11-04T16:43:22.421Z,33.67
2022-11-04T16:45:53.722Z,34.58
2022-11-04T16:48:23.765Z,34.05
2022-11-04T16:50:51.018Z,31.20
2022-11-04T16:53:18.204Z,31.08
2022-11-04T16:55:46.125Z,31.45
2022-11-04T16:58:18.037Z,30.60
2022-11-04T17:00:45.502Z,28.00
2022-11-04T17:03:25.642Z,28.15
2022-11-04T17:05:56.612Z,26.27
2022-11-04T17:08:24.803Z,25.65
2022-11-04T17:10:52.640Z,26.17
2022-11-04T17:13:19.986Z,26.38
2022-11-04T17:15:47.875Z,27.17
2022-11-04T17:18:17.972Z,26.13
2022-11-04T17:20:49.235Z,24.90
2022-11-04T17:23:17.390Z,25.40
2022-11-04T17:25:45.574Z,25.65
2022-11-04T17:28:14.198Z,25.17
2022-11-04T17:30:42.873Z,25.48
2022-11-04T17:33:13.809Z,24.58
2022-11-04T17:35:48.483Z,25.20
2022-11-04T17:38:17.224Z,25.08
2022-11-04T17:41:03.806Z,23.85
2022-11-04T17:43:50.301Z,38.78
2022-11-04T17:46:37.798Z,44.15
2022-11-04T17:49:08.923Z,38.42
2022-11-04T17:51:36.932Z,26.02
2022-11-04T17:54:05.739Z,26.37
2022-11-04T17:56:33.322Z,26.88
2022-11-04T17:59:01.699Z,36.25
2022-11-04T18:01:29.129Z,38.15
2022-11-04T18:03:57.954Z,41.25
2022-11-04T18:06:26.543Z,35.17
2022-11-04T18:08:55.360Z,31.33
2022-11-04T18:11:43.824Z,31.05
2022-11-04T18:14:16.837Z,30.65
2022-11-04T18:16:47.242Z,28.10
2022-11-04T18:19:16.494Z,28.60
2022-11-04T18:21:44.533Z,29.63
2022-11-04T18:24:14.897Z,29.33
2022-11-04T18:26:44.351Z,29.15
2022-11-04T18:29:11.846Z,28.02
2022-11-04T18:31:49.092Z,28.02
2022-11-04T18:34:19.603Z,27.60
2022-11-04T18:36:48.509Z,27.77
2022-11-04T18:39:17.650Z,24.55
2022-11-04T18:41:45.837Z,26.20
2022-11-04T18:44:21.302Z,23.20
2022-11-04T18:46:49.567Z,24.65
2022-11-04T18:49:18.086Z,24.30
2022-11-04T18:51:45.457Z,24.00
2022-11-04T18:54:13.431Z,22.33
2022-11-04T18:56:41.240Z,22.92
2022-11-04T18:59:10.695Z,25.20
2022-11-04T19:01:38.463Z,28.83
2022-11-04T19:04:06.150Z,22.63
2022-11-04T19:06:36.382Z,22.70
2022-11-04T19:09:40.168Z,51.30
2022-11-04T19:12:16.146Z,57.30
2022-11-04T19:14:43.479Z,37.10
2022-11-04T19:17:11.141Z,26.05
2022-11-04T19:19:40.901Z,22.63
2022-11-04T19:22:09.294Z,23.27
2022-11-04T19:24:36.731Z,24.67
2022-11-04T19:27:04.614Z,24.33
2022-11-04T19:29:32.987Z,28.50
2022-11-04T19:32:00.930Z,29.42
2022-11-04T19:34:28.169Z,30.70
2022-11-04T19:36:55.639Z,30.65
2022-11-04T19:39:22.825Z,25.73
2022-11-04T19:42:08.629Z,24.35
2022-11-04T19:44:35.990Z,27.15
2022-11-04T19:47:03.301Z,27.08
2022-11-04T19:49:31.614Z,26.52
2022-11-04T19:51:59.452Z,23.55
2022-11-04T19:54:28.228Z,22.95
2022-11-04T19:56:55.913Z,22.80
2022-11-04T19:59:23.133Z,23.98
2022-11-04T20:01:50.697Z,24.70
2022-11-04T20:04:18.309Z,24.38
2022-11-04T20:06:45.577Z,24.23
2022-11-04T20:09:12.951Z,22.58
2022-11-04T20:12:00.281Z,23.13
2022-11-04T20:14:28.723Z,22.05
2022-11-04T20:16:55.976Z,21.63
2022-11-04T20:19:23.736Z,21.10
2022-11-04T20:21:51.104Z,21.27
2022-11-04T20:24:18.700Z,20.40
2022-11-04T20:26:49.216Z,19.08
2022-11-04T20:29:17.355Z,19.58
2022-11-04T20:31:45.545Z,18.92
2022-11-04T20:34:13.960Z,20.17
2022-11-04T20:36:41.783Z,20.70
2022-11-04T20:39:16.044Z,22.15
2022-11-04T20:41:44.693Z,20.67
2022-11-04T20:44:13.813Z,22.10
2022-11-04T20:46:41.899Z,22.30
2022-11-04T20:49:09.354Z,21.13
2022-11-04T20:51:42.320Z,22.50
2022-11-04T20:54:10.864Z,26.30
2022-11-04T20:56:40.184Z,23.92
2022-11-04T20:59:09.536Z,25.65
2022-11-04T21:01:40.166Z,26.00
2022-11-04T21:04:11.540Z,34.33
2022-11-04T21:06:39.650Z,36.80
2022-11-04T21:09:09.239Z,27.02
2022-11-04T21:11:39.042Z,24.90
2022-11-04T21:16:39.292Z,25.10
2022-11-04T21:19:07.712Z,23.13
2022-11-04T21:21:35.187Z,23.58
2022-11-04T21:24:05.653Z,23.92
2022-11-04T21:26:35.009Z,22.92
2022-11-04T21:29:08.342Z,23.02
2022-11-04T21:31:37.040Z,23.42
2022-11-04T21:34:04.732Z,23.08
2022-11-04T21:36:32.642Z,23.90
2022-11-04T21:39:00.274Z,23.60
2022-11-04T21:41:30.459Z,24.85
2022-11-04T21:43:59.612Z,25.80
2022-11-04T21:46:28.525Z,26.77
2022-11-04T21:48:56.845Z,26.23
2022-11-04T21:51:25.796Z,30.23
2022-11-04T21:53:53.112Z,28.03
2022-11-04T21:56:25.893Z,29.75
2022-11-04T21:58:53.911Z,28.85
2022-11-04T22:01:24.699Z,29.63
2022-11-04T22:03:59.328Z,29.25
2022-11-04T22:06:34.745Z,29.65
2022-11-04T22:09:05.166Z,27.13
2022-11-04T22:11:33.609Z,27.25
2022-11-04T22:14:04.678Z,28.23
2022-11-04T22:16:34.354Z,26.50
2022-11-04T22:19:04.035Z,27.20
2022-11-04T22:21:32.463Z,25.75
2022-11-04T22:24:00.710Z,26.30
2022-11-04T22:26:30.864Z,26.17
2022-11-04T22:28:59.002Z,26.33
2022-11-04T22:31:27.661Z,26.42
2022-11-04T22:33:55.642Z,27.42
2022-11-04T22:36:23.534Z,27.83
2022-11-04T22:38:50.924Z,26.40
2022-11-04T22:41:23.890Z,25.80
2022-11-04T22:43:51.126Z,27.23
2022-11-04T22:46:25.553Z,28.33
2022-11-04T22:48:52.811Z,28.48
2022-11-04T22:51:20.377Z,28.92
2022-11-04T22:53:56.731Z,28.10
2022-11-04T22:56:25.232Z,29.17
2022-11-04T22:58:54.245Z,30.35
2022-11-04T23:01:22.478Z,31.98
2022-11-04T23:03:53.212Z,31.95
2022-11-04T23:06:20.691Z,29.67
2022-11-04T23:08:47.960Z,28.77
2022-11-04T23:11:44.111Z,28.70
2022-11-04T23:14:35.120Z,28.25
2022-11-04T23:17:21.562Z,26.95
2022-11-04T23:19:50.286Z,27.83
2022-11-04T23:22:35.995Z,26.92
2022-11-04T23:25:06.565Z,26.50
2022-11-04T23:27:54.530Z,34.70
2022-11-04T23:30:22.514Z,25.67
2022-11-04T23:32:54.323Z,25.73
2022-11-04T23:35:46.231Z,26.42
2022-11-04T23:38:13.593Z,25.73
2022-11-04T23:40:41.205Z,25.83
2022-11-04T23:43:08.817Z,25.20
2022-11-04T23:46:05.249Z,26.23
2022-11-04T23:48:51.029Z,26.63
2022-11-04T23:51:36.874Z,25.92
2022-11-04T23:54:30.319Z,25.48
2022-11-04T23:57:16.490Z,25.95
